createdAt,value
2022-10-11T00:02:16.834Z,2.47
2022-10-11T00:07:19.909Z,1.95
2022-10-11T00:12:21.645Z,2.10
2022-10-11T00:17:23.571Z,2.03
2022-10-11T00:22:25.316Z,1.92
2022-10-11T00:27:27.429Z,2.28
2022-10-11T00:32:29.647Z,1.73
2022-10-11T00:37:35.797Z,1.88
2022-10-11T00:42:37.760Z,1.77
2022-10-11T00:47:41.035Z,1.92
2022-10-11T00:52:50.147Z,2.00
2022-10-11T00:57:53.632Z,1.67
2022-10-11T01:02:55.599Z,2.88
2022-10-11T01:08:00.208Z,2.25
2022-10-11T01:13:29.594Z,1.77
2022-10-11T01:18:43.006Z,1.83
2022-10-11T01:24:18.165Z,1.83
2022-10-11T01:29:35.125Z,1.80
2022-10-11T01:35:02.946Z,2.72
2022-10-11T01:40:18.137Z,2.10
2022-10-11T01:45:20.721Z,2.05
2022-10-11T01:50:34.342Z,2.50
2022-10-11T01:55:53.556Z,2.35
2022-10-11T02:01:24.298Z,2.45
2022-10-11T02:06:39.310Z,2.75
2022-10-11T02:11:41.580Z,2.60
2022-10-11T02:17:08.314Z,2.85
2022-10-11T02:22:25.019Z,2.60
2022-10-11T02:27:30.480Z,2.38
2022-10-11T02:32:33.773Z,2.90
2022-10-11T02:38:05.586Z,2.83
2022-10-11T02:43:24.216Z,2.45
2022-10-11T02:48:29.718Z,2.40
2022-10-11T02:53:31.832Z,2.63
2022-10-11T02:58:33.556Z,3.28
2022-10-11T03:03:35.333Z,2.60
2022-10-11T03:08:37.083Z,2.70
2022-10-11T03:13:38.784Z,2.30
2022-10-11T03:18:40.857Z,2.38
2022-10-11T03:23:42.680Z,2.60
2022-10-11T03:28:44.676Z,2.85
2022-10-11T03:33:46.445Z,2.92
2022-10-11T03:38:48.312Z,2.88
2022-10-11T03:43:49.998Z,3.15
2022-10-11T03:48:51.777Z,2.47
2022-10-11T03:53:53.501Z,2.83
2022-10-11T03:58:55.742Z,3.88
2022-10-11T04:03:57.776Z,3.17
2022-10-11T04:09:01.402Z,3.10
2022-10-11T04:14:03.417Z,3.33
2022-10-11T04:19:05.470Z,3.33
2022-10-11T04:24:07.827Z,3.10
2022-10-11T04:29:09.769Z,3.40
2022-10-11T04:34:12.876Z,3.35
2022-10-11T04:39:14.794Z,3.90
2022-10-11T04:44:16.514Z,3.83
2022-10-11T04:49:18.391Z,4.22
2022-10-11T04:54:20.370Z,4.13
2022-10-11T04:59:22.149Z,4.45
2022-10-11T05:04:24.070Z,4.25
2022-10-11T05:09:25.861Z,4.45
2022-10-11T05:14:27.629Z,4.93
2022-10-11T05:19:29.488Z,4.45
2022-10-11T05:24:31.600Z,5.20
2022-10-11T05:29:33.420Z,5.20
2022-10-11T05:34:35.185Z,4.88
2022-10-11T05:39:37.253Z,4.95
2022-10-11T05:44:39.049Z,4.85
2022-10-11T05:49:40.755Z,5.35
2022-10-11T05:54:42.462Z,5.20
2022-10-11T05:59:44.199Z,5.50
2022-10-11T06:04:45.982Z,4.43
2022-10-11T06:09:47.728Z,5.03
2022-10-11T06:14:49.498Z,5.35
2022-10-11T06:19:51.420Z,5.60
2022-10-11T06:24:53.149Z,5.43
2022-10-11T06:29:54.948Z,5.53
2022-10-11T06:34:56.704Z,5.80
2022-10-11T06:39:58.412Z,5.85
2022-10-11T06:45:00.314Z,5.18
2022-10-11T06:50:02.064Z,5.80
2022-10-11T06:55:04.008Z,5.93
2022-10-11T07:00:10.301Z,5.57
2022-10-11T07:05:14.308Z,6.70
2022-10-11T07:10:16.148Z,6.70
2022-10-11T07:15:18.149Z,6.03
2022-10-11T07:20:19.906Z,6.25
2022-10-11T07:25:21.644Z,6.55
2022-10-11T07:30:23.479Z,4.72
2022-10-11T07:35:25.325Z,5.05
2022-10-11T07:40:27.077Z,5.13
2022-10-11T07:45:29.065Z,4.95
2022-10-11T07:50:30.766Z,4.65
2022-10-11T07:55:40.094Z,4.72
2022-10-11T08:05:44.910Z,4.43
2022-10-11T08:10:46.857Z,4.28
2022-10-11T08:15:48.628Z,3.97
2022-10-11T08:20:50.690Z,4.22
2022-10-11T08:25:57.990Z,5.22
2022-10-11T08:31:00.169Z,4.32
2022-10-11T08:36:06.246Z,3.78
2022-10-11T08:41:47.826Z,3.80
2022-10-11T08:47:00.298Z,3.30
2022-10-11T08:52:21.448Z,2.90
2022-10-11T08:57:26.643Z,2.90
2022-10-11T09:03:09.881Z,2.97
2022-10-11T09:08:25.336Z,3.78
2022-10-11T09:13:45.288Z,2.70
2022-10-11T09:18:53.025Z,2.80
2022-10-11T09:24:01.879Z,3.55
2022-10-11T09:29:29.791Z,3.13
2022-10-11T09:34:33.550Z,2.58
2022-10-11T09:39:39.216Z,3.03
2022-10-11T09:44:45.933Z,2.38
2022-10-11T09:50:15.070Z,2.25
2022-10-11T09:55:32.157Z,2.45
2022-10-11T10:00:34.182Z,2.22
2022-10-11T10:05:37.455Z,2.17
2022-10-11T10:10:42.513Z,2.60
2022-10-11T10:15:47.886Z,2.67
2022-10-11T10:20:55.620Z,2.92
2022-10-11T10:26:25.349Z,1.98
2022-10-11T10:31:49.524Z,2.15
2022-10-11T10:37:20.154Z,2.40
2022-10-11T10:42:22.227Z,2.22
2022-10-11T10:47:42.458Z,2.33
2022-10-11T10:52:49.837Z,2.30
2022-10-11T10:58:12.877Z,2.45
2022-10-11T11:03:46.383Z,2.15
2022-10-11T11:09:14.642Z,1.92
2022-10-11T11:14:30.471Z,2.15
2022-10-11T11:19:46.529Z,1.95
2022-10-11T11:25:04.249Z,2.40
2022-10-11T11:30:06.256Z,1.48
2022-10-11T11:35:25.035Z,1.98
2022-10-11T11:40:47.581Z,2.20
2022-10-11T11:45:58.099Z,2.08
2022-10-11T11:51:09.301Z,2.28
2022-10-11T11:56:38.847Z,2.10
2022-10-11T12:01:52.346Z,2.03
2022-10-11T12:07:16.412Z,1.95
2022-10-11T12:12:34.125Z,2.22
2022-10-11T12:17:56.193Z,2.22
2022-10-11T12:23:01.064Z,2.10
2022-10-11T12:28:43.233Z,2.05
2022-10-11T12:33:52.206Z,2.10
2022-10-11T12:39:19.173Z,2.03
2022-10-11T12:44:30.443Z,2.10
2022-10-11T12:49:50.347Z,2.63
2022-10-11T12:55:29.816Z,2.10
2022-10-11T13:00:55.078Z,3.03
2022-10-11T13:06:01.394Z,2.20
2022-10-11T13:11:07.965Z,2.58
2022-10-11T13:16:19.201Z,2.20
2022-10-11T13:21:36.147Z,1.88
2022-10-11T13:26:38.518Z,2.03
2022-10-11T13:31:40.718Z,1.75
2022-10-11T13:36:43.129Z,1.88
2022-10-11T13:41:44.973Z,2.08
2022-10-11T13:46:47.356Z,1.80
2022-10-11T13:52:19.957Z,1.85
2022-10-11T13:57:28.403Z,2.10
2022-10-11T14:02:31.322Z,1.80
2022-10-11T14:07:38.437Z,1.80
2022-10-11T14:12:44.411Z,1.50
2022-10-11T14:17:46.202Z,2.38
2022-10-11T14:22:57.474Z,1.60
2022-10-11T14:27:59.892Z,1.85
2022-10-11T14:33:05.779Z,1.80
2022-10-11T14:38:11.661Z,1.73
2022-10-11T14:43:13.409Z,1.65
2022-10-11T14:48:15.596Z,2.08
2022-10-11T14:53:22.281Z,2.15
2022-10-11T14:58:24.327Z,1.70
2022-10-11T15:03:26.077Z,2.13
2022-10-11T15:08:27.783Z,1.63
2022-10-11T15:13:29.512Z,1.65
2022-10-11T15:18:31.217Z,1.70
2022-10-11T15:23:33.099Z,1.80
2022-10-11T15:28:34.987Z,1.60
2022-10-11T15:33:37.625Z,2.13
2022-10-11T15:38:39.927Z,1.95
2022-10-11T15:43:43.689Z,1.80
2022-10-11T15:48:46.752Z,1.75
2022-10-11T15:53:48.647Z,2.00
2022-10-11T15:58:50.366Z,2.10
2022-10-11T16:03:52.218Z,2.42
2022-10-11T16:08:54.024Z,2.22
2022-10-11T16:13:56.114Z,3.10
2022-10-11T16:18:57.893Z,2.22
2022-10-11T16:24:00.130Z,4.95
2022-10-11T16:29:02.234Z,5.38
2022-10-11T16:34:04.878Z,4.78
2022-10-11T16:39:12.237Z,4.65
2022-10-11T16:44:15.921Z,3.83
2022-10-11T16:49:21.971Z,3.40
2022-10-11T16:54:23.696Z,4.53
2022-10-11T16:59:25.551Z,4.28
2022-10-11T17:04:27.351Z,4.78
2022-10-11T17:09:29.143Z,3.97
2022-10-11T17:14:30.884Z,4.10
2022-10-11T17:19:33.133Z,4.60
2022-10-11T17:24:36.314Z,4.38
2022-10-11T17:29:38.190Z,4.18
2022-10-11T17:34:39.891Z,5.10
2022-10-11T17:39:41.607Z,5.22
2022-10-11T17:44:43.334Z,5.35
2022-10-11T17:49:45.109Z,5.55
2022-10-11T17:54:46.896Z,6.40
2022-10-11T17:59:48.868Z,5.57
2022-10-11T18:04:53.295Z,5.07
2022-10-11T18:09:55.223Z,5.45
2022-10-11T18:14:56.967Z,6.22
2022-10-11T18:19:58.773Z,5.75
2022-10-11T18:25:00.556Z,7.55
2022-10-11T18:30:02.545Z,8.48
2022-10-11T18:35:04.750Z,8.85
2022-10-11T18:40:06.877Z,6.90
2022-10-11T18:45:09.438Z,8.32
2022-10-11T18:50:11.393Z,8.45
2022-10-11T18:55:13.184Z,9.38
2022-10-11T19:00:37.812Z,10.38
2022-10-11T19:05:39.135Z,11.30
2022-10-11T19:10:41.010Z,12.98
2022-10-11T19:15:42.820Z,12.05
2022-10-11T19:20:44.706Z,12.02
2022-10-11T19:25:46.603Z,12.73
2022-10-11T19:30:48.338Z,13.48
2022-10-11T19:35:54.808Z,13.38
2022-10-11T19:40:56.699Z,14.02
2022-10-11T19:46:06.825Z,11.73
2022-10-11T19:51:14.351Z,14.52
2022-10-11T19:56:18.349Z,14.77
2022-10-11T20:01:22.994Z,15.98
2022-10-11T20:06:26.649Z,15.48
2022-10-11T20:11:28.901Z,15.73
2022-10-11T20:16:30.657Z,15.27
2022-10-11T20:21:33.355Z,14.75
2022-10-11T20:26:35.453Z,14.90
2022-10-11T20:31:41.722Z,15.80
2022-10-11T20:36:48.238Z,16.13
2022-10-11T20:41:51.123Z,16.10
2022-10-11T20:46:52.909Z,15.65
2022-10-11T20:51:54.662Z,17.17
2022-10-11T20:56:57.601Z,15.00
2022-10-11T21:01:59.356Z,15.20
2022-10-11T21:07:01.079Z,15.95
2022-10-11T21:12:03.001Z,16.20
2022-10-11T21:17:07.982Z,16.30
2022-10-11T21:22:09.879Z,15.98
2022-10-11T21:27:11.685Z,17.33
2022-10-11T21:32:14.612Z,16.35
2022-10-11T21:37:16.779Z,15.73
2022-10-11T21:42:18.526Z,17.27
2022-10-11T21:47:20.214Z,16.02
2022-10-11T21:52:22.136Z,16.83
2022-10-11T21:57:23.915Z,15.90
2022-10-11T22:02:25.705Z,15.70
2022-10-11T22:07:27.633Z,17.65
2022-10-11T22:12:29.386Z,16.67
2022-10-11T22:17:31.083Z,15.13
2022-10-11T22:22:33.469Z,14.82
2022-10-11T22:27:35.341Z,17.75
2022-10-11T22:32:37.437Z,16.40
2022-10-11T22:37:39.381Z,17.10
2022-10-11T22:42:41.281Z,15.80
2022-10-11T22:47:43.013Z,14.80
2022-10-11T22:52:44.786Z,14.25
2022-10-11T22:57:46.507Z,16.20
2022-10-11T23:02:48.616Z,14.70
2022-10-11T23:07:50.441Z,17.02
2022-10-11T23:12:52.149Z,13.88
2022-10-11T23:17:53.915Z,14.98
2022-10-11T23:22:55.614Z,14.52
2022-10-11T23:28:00.973Z,14.75
2022-10-11T23:33:02.673Z,14.57
2022-10-11T23:38:04.374Z,13.63
2022-10-11T23:43:06.080Z,14.13
2022-10-11T23:48:07.852Z,14.98
2022-10-11T23:53:10.827Z,14.05
2022-10-11T23:58:12.533Z,15.88
